createdAt,value
2023-04-02T00:01:22.790Z,85.20
2023-04-02T00:03:54.051Z,85.50
2023-04-02T00:06:40.269Z,85.80
2023-04-02T00:09:13.401Z,85.80
2023-04-02T00:11:43.364Z,86.10
2023-04-02T00:14:23.246Z,86.10
2023-04-02T00:16:52.136Z,86.20
2023-04-02T00:19:30.603Z,86.00
2023-04-02T00:21:58.992Z,86.30
2023-04-02T00:24:25.896Z,85.50
2023-04-02T00:26:54.140Z,85.80
2023-04-02T00:29:21.385Z,84.10
2023-04-02T00:31:53.955Z,83.60
2023-04-02T00:34:31.757Z,82.60
2023-04-02T00:36:59.076Z,82.70
2023-04-02T00:39:28.797Z,82.50
2023-04-02T00:42:06.869Z,81.70
2023-04-02T00:44:42.758Z,81.20
2023-04-02T00:47:15.701Z,80.90
2023-04-02T00:49:42.933Z,81.10
2023-04-02T00:52:16.971Z,80.10
2023-04-02T00:55:06.529Z,80.50
2023-04-02T00:57:34.574Z,80.30
2023-04-02T01:00:13.762Z,80.50
2023-04-02T01:02:41.386Z,80.50
2023-04-02T01:05:17.665Z,79.80
2023-04-02T01:07:53.888Z,80.30
2023-04-02T01:10:42.053Z,80.40
2023-04-02T01:13:27.656Z,80.70
2023-04-02T01:16:16.251Z,80.60
2023-04-02T01:19:06.062Z,80.90
2023-04-02T01:22:05.065Z,81.40
2023-04-02T01:24:33.764Z,81.40
2023-04-02T01:27:19.278Z,81.90
2023-04-02T01:29:55.630Z,81.40
2023-04-02T01:32:25.480Z,80.80
2023-04-02T01:34:53.079Z,80.90
2023-04-02T01:37:58.745Z,81.10
2023-04-02T01:40:38.099Z,80.60
2023-04-02T01:43:42.019Z,80.90
2023-04-02T01:46:33.479Z,80.80
2023-04-02T01:49:03.192Z,80.70
2023-04-02T01:51:33.024Z,81.00
2023-04-02T01:54:02.175Z,80.90
2023-04-02T01:56:30.440Z,81.50
2023-04-02T01:58:58.441Z,81.40
2023-04-02T02:01:33.530Z,81.50
2023-04-02T02:04:01.460Z,81.20
2023-04-02T02:06:28.445Z,81.60
2023-04-02T02:08:59.532Z,81.20
2023-04-02T02:11:31.108Z,81.50
2023-04-02T02:14:00.768Z,81.10
2023-04-02T02:16:30.162Z,81.20
2023-04-02T02:19:01.675Z,81.60
2023-04-02T02:21:48.478Z,81.30
2023-04-02T02:24:28.525Z,81.20
2023-04-02T02:27:01.212Z,81.30
2023-04-02T02:29:31.509Z,81.80
2023-04-02T02:31:59.876Z,82.20
2023-04-02T02:34:36.224Z,82.10
2023-04-02T02:37:17.831Z,82.90
2023-04-02T02:39:46.760Z,82.70
2023-04-02T02:42:19.732Z,83.20
2023-04-02T02:44:52.148Z,82.60
2023-04-02T02:47:23.726Z,82.40
2023-04-02T02:49:54.192Z,83.00
2023-04-02T02:52:25.375Z,82.80
2023-04-02T02:55:01.838Z,83.50
2023-04-02T02:57:40.356Z,82.70
2023-04-02T03:00:09.881Z,83.40
2023-04-02T03:02:39.631Z,83.10
2023-04-02T03:05:07.626Z,82.70
2023-04-02T03:07:34.747Z,82.90
2023-04-02T03:10:16.996Z,81.70
2023-04-02T03:13:22.163Z,80.60
2023-04-02T03:15:58.762Z,80.30
2023-04-02T03:18:28.673Z,79.60
2023-04-02T03:21:13.659Z,78.80
2023-04-02T03:23:46.043Z,79.30
2023-04-02T03:26:12.785Z,79.40
2023-04-02T03:28:46.306Z,79.30
2023-04-02T03:31:23.220Z,78.80
2023-04-02T03:34:00.286Z,78.50
2023-04-02T03:36:43.642Z,78.30
2023-04-02T03:39:32.369Z,78.80
2023-04-02T03:42:05.047Z,78.30
2023-04-02T03:44:59.970Z,78.50
2023-04-02T03:47:32.933Z,78.40
2023-04-02T03:50:32.946Z,78.10
2023-04-02T03:53:00.340Z,78.90
2023-04-02T03:55:30.834Z,78.60
2023-04-02T03:58:24.955Z,79.40
2023-04-02T04:01:03.742Z,78.30
2023-04-02T04:03:36.627Z,79.00
2023-04-02T04:06:28.781Z,79.70
2023-04-02T04:09:00.488Z,79.50
2023-04-02T04:11:32.466Z,79.70
2023-04-02T04:14:18.443Z,79.90
2023-04-02T04:16:58.660Z,80.40
2023-04-02T04:19:30.081Z,80.70
2023-04-02T04:22:17.765Z,81.00
2023-04-02T04:24:48.122Z,81.70
2023-04-02T04:27:45.437Z,82.10
2023-04-02T04:30:18.363Z,82.20
2023-04-02T04:33:01.980Z,82.70
2023-04-02T04:35:36.749Z,83.00
2023-04-02T04:38:15.887Z,83.10
2023-04-02T04:40:53.867Z,83.40
2023-04-02T04:43:30.341Z,83.00
2023-04-02T04:46:03.740Z,82.90
2023-04-02T04:48:46.249Z,82.60
2023-04-02T04:51:54.041Z,83.00
2023-04-02T04:54:25.369Z,82.60
2023-04-02T04:56:56.421Z,82.50
2023-04-02T04:59:29.697Z,81.10
2023-04-02T05:02:11.570Z,79.70
2023-04-02T05:04:41.494Z,78.00
2023-04-02T05:07:17.251Z,77.10
2023-04-02T05:09:59.713Z,77.10
2023-04-02T05:13:03.821Z,76.30
2023-04-02T05:15:40.127Z,76.50
2023-04-02T05:18:21.989Z,76.50
2023-04-02T05:21:01.392Z,76.80
2023-04-02T05:23:31.267Z,77.90
2023-04-02T05:26:09.411Z,78.70
2023-04-02T05:28:42.650Z,78.70
2023-04-02T05:31:17.545Z,78.10
2023-04-02T05:33:49.725Z,78.40
2023-04-02T05:36:23.291Z,79.00
2023-04-02T05:38:51.254Z,77.20
2023-04-02T05:41:39.998Z,77.00
2023-04-02T05:44:08.999Z,76.60
2023-04-02T05:46:41.301Z,77.10
2023-04-02T05:49:17.929Z,76.10
2023-04-02T05:51:49.070Z,75.70
2023-04-02T05:54:38.252Z,75.50
2023-04-02T05:57:14.046Z,75.40
2023-04-02T05:59:48.572Z,76.70
2023-04-02T06:02:31.202Z,76.90
2023-04-02T06:05:17.400Z,76.80
2023-04-02T06:07:52.725Z,76.60
2023-04-02T06:10:30.015Z,77.20
2023-04-02T06:13:05.495Z,76.50
2023-04-02T06:15:33.947Z,77.10
2023-04-02T06:18:07.857Z,77.00
2023-04-02T06:20:35.872Z,76.40
2023-04-02T06:23:17.710Z,76.40
2023-04-02T06:26:09.931Z,77.10
2023-04-02T06:28:45.349Z,76.90
2023-04-02T06:31:30.490Z,76.40
2023-04-02T06:33:57.550Z,76.20
2023-04-02T06:36:27.041Z,75.30
2023-04-02T06:38:58.853Z,74.50
2023-04-02T06:41:25.913Z,74.40
2023-04-02T06:43:56.211Z,73.90
2023-04-02T06:46:38.269Z,73.20
2023-04-02T06:49:19.798Z,73.60
2023-04-02T06:51:49.413Z,73.20
2023-04-02T06:54:18.041Z,73.00
2023-04-02T06:56:53.887Z,73.60
2023-04-02T06:59:21.076Z,73.00
2023-04-02T07:02:14.102Z,74.20
2023-04-02T07:04:40.902Z,73.10
2023-04-02T07:07:07.740Z,73.30
2023-04-02T07:09:34.570Z,74.10
2023-04-02T07:12:01.559Z,74.30
2023-04-02T07:14:28.307Z,75.70
2023-04-02T07:16:55.229Z,72.60
2023-04-02T07:19:23.698Z,74.00
2023-04-02T07:21:50.445Z,75.00
2023-04-02T07:24:17.229Z,73.50
2023-04-02T07:26:44.236Z,73.70
2023-04-02T07:29:15.980Z,73.70
2023-04-02T07:31:42.951Z,74.40
2023-04-02T07:34:10.233Z,71.10
2023-04-02T07:36:37.088Z,69.50
2023-04-02T07:39:04.492Z,70.50
2023-04-02T07:41:31.454Z,68.90
2023-04-02T07:43:58.306Z,69.60
2023-04-02T07:46:26.002Z,71.10
2023-04-02T07:48:53.015Z,67.20
2023-04-02T07:51:23.432Z,59.60
2023-04-02T07:53:51.019Z,60.40
2023-04-02T07:56:21.016Z,62.40
2023-04-02T07:58:48.081Z,63.90
2023-04-02T08:01:26.303Z,64.80
2023-04-02T08:03:57.647Z,66.40
2023-04-02T08:06:25.632Z,68.80
2023-04-02T08:08:52.600Z,65.20
2023-04-02T08:11:19.744Z,62.50
2023-04-02T08:13:46.702Z,61.30
2023-04-02T08:16:13.680Z,56.20
2023-04-02T08:18:40.575Z,58.40
2023-04-02T08:21:08.889Z,56.70
2023-04-02T08:23:35.907Z,58.20
2023-04-02T08:29:33.831Z,58.50
2023-04-02T08:32:01.370Z,58.60
2023-04-02T08:34:29.325Z,56.60
2023-04-02T08:36:57.450Z,49.60
2023-04-02T08:39:27.052Z,53.70
2023-04-02T08:42:03.758Z,53.60
2023-04-02T08:44:36.694Z,53.30
2023-04-02T08:47:07.416Z,52.10
2023-04-02T08:50:01.052Z,50.30
2023-04-02T08:52:38.834Z,47.80
2023-04-02T08:55:34.014Z,53.70
2023-04-02T08:58:15.717Z,50.50
2023-04-02T09:00:45.640Z,52.10
2023-04-02T09:03:48.256Z,50.20
2023-04-02T09:06:18.938Z,49.90
2023-04-02T09:08:48.602Z,48.70
2023-04-02T09:11:31.864Z,48.50
2023-04-02T09:14:01.791Z,47.30
2023-04-02T09:16:43.557Z,48.00
2023-04-02T09:19:45.000Z,45.00
2023-04-02T09:22:27.247Z,46.20
2023-04-02T09:24:55.940Z,46.70
2023-04-02T09:27:25.716Z,46.60
2023-04-02T09:30:15.812Z,42.80
2023-04-02T09:32:48.519Z,47.40
2023-04-02T09:35:26.028Z,46.90
2023-04-02T09:38:17.020Z,43.60
2023-04-02T09:40:46.870Z,45.80
2023-04-02T09:43:15.469Z,45.50
2023-04-02T09:45:44.006Z,46.60
2023-04-02T09:48:53.386Z,47.10
2023-04-02T09:51:25.806Z,47.40
2023-04-02T09:54:04.892Z,50.50
2023-04-02T09:56:33.700Z,53.20
2023-04-02T09:59:13.214Z,53.00
2023-04-02T10:01:57.353Z,52.90
2023-04-02T10:04:44.380Z,53.50
2023-04-02T10:07:34.705Z,55.30
2023-04-02T10:10:16.164Z,55.40
2023-04-02T10:12:48.206Z,56.90
2023-04-02T10:18:44.135Z,56.80
2023-04-02T10:21:15.548Z,58.70
2023-04-02T10:23:42.594Z,53.90
2023-04-02T10:26:24.412Z,58.50
2023-04-02T10:29:16.948Z,56.80
2023-04-02T10:32:06.166Z,50.00
2023-04-02T10:34:36.450Z,55.50
2023-04-02T10:37:25.038Z,51.50
2023-04-02T10:39:58.815Z,48.20
2023-04-02T10:42:52.870Z,43.60
2023-04-02T10:45:22.731Z,42.40
2023-04-02T10:48:11.469Z,43.70
2023-04-02T10:50:49.603Z,40.90
2023-04-02T10:56:47.919Z,38.90
2023-04-02T10:59:24.634Z,42.40
2023-04-02T11:01:52.775Z,41.70
2023-04-02T11:04:25.137Z,42.60
2023-04-02T11:07:07.124Z,46.60
2023-04-02T11:09:46.053Z,49.10
2023-04-02T11:12:46.673Z,47.50
2023-04-02T11:15:18.955Z,42.90
2023-04-02T11:17:47.122Z,43.50
2023-04-02T11:20:43.855Z,49.60
2023-04-02T11:23:17.369Z,44.80
2023-04-02T11:25:45.248Z,44.70
2023-04-02T11:28:30.420Z,43.40
2023-04-02T11:30:57.742Z,46.30
2023-04-02T11:33:46.137Z,46.30
2023-04-02T11:36:51.124Z,48.20
2023-04-02T11:39:45.928Z,48.40
2023-04-02T11:42:18.503Z,51.20
2023-04-02T11:44:45.805Z,50.30
2023-04-02T11:47:30.881Z,54.30
2023-04-02T11:50:02.728Z,49.70
2023-04-02T11:52:37.887Z,47.80
2023-04-02T11:55:24.833Z,42.10
2023-04-02T11:58:28.935Z,40.10
2023-04-02T12:02:09.458Z,40.90
2023-04-02T12:04:45.514Z,40.90
2023-04-02T12:07:34.858Z,41.60
2023-04-02T12:10:20.705Z,36.40
2023-04-02T12:12:48.543Z,39.00
2023-04-02T12:15:37.039Z,41.00
2023-04-02T12:18:17.178Z,39.70
2023-04-02T12:20:52.818Z,37.50
2023-04-02T12:23:26.764Z,37.60
2023-04-02T12:25:58.529Z,41.90
2023-04-02T12:28:28.898Z,39.30
2023-04-02T12:31:19.009Z,39.30
2023-04-02T12:33:46.235Z,36.10
2023-04-02T12:36:16.014Z,38.80
2023-04-02T12:38:53.160Z,41.90
2023-04-02T12:41:24.377Z,43.00
2023-04-02T12:44:02.324Z,36.90
2023-04-02T12:46:31.507Z,39.90
2023-04-02T12:49:05.158Z,41.60
2023-04-02T12:51:32.772Z,42.50
2023-04-02T12:53:59.675Z,42.00
2023-04-02T12:56:27.188Z,39.50
2023-04-02T12:58:59.189Z,41.50
2023-04-02T13:01:28.311Z,42.90
2023-04-02T13:04:14.883Z,43.30
2023-04-02T13:06:49.404Z,44.00
2023-04-02T13:09:30.985Z,44.90
2023-04-02T13:12:32.446Z,44.00
2023-04-02T13:15:02.028Z,44.10
2023-04-02T13:17:43.056Z,46.80
2023-04-02T13:20:38.988Z,47.70
2023-04-02T13:23:24.382Z,44.80
2023-04-02T13:25:51.972Z,47.00
2023-04-02T13:28:19.359Z,48.20
2023-04-02T13:30:46.704Z,45.00
2023-04-02T13:33:14.719Z,44.50
2023-04-02T13:35:42.189Z,46.70
2023-04-02T13:38:09.234Z,50.20
2023-04-02T13:40:37.832Z,50.50
2023-04-02T13:43:06.597Z,48.80
2023-04-02T13:45:37.440Z,48.60
2023-04-02T13:48:05.732Z,50.10
2023-04-02T13:50:34.962Z,52.80
2023-04-02T13:53:09.029Z,51.90
2023-04-02T13:55:40.830Z,46.70
2023-04-02T13:58:07.809Z,49.50
2023-04-02T14:00:37.843Z,48.00
2023-04-02T14:03:11.952Z,48.50
2023-04-02T14:05:58.186Z,51.10
2023-04-02T14:08:52.252Z,51.10
2023-04-02T14:11:19.008Z,52.50
2023-04-02T14:14:03.658Z,50.50
2023-04-02T14:16:45.730Z,46.80
2023-04-02T14:19:52.695Z,46.80
2023-04-02T14:22:47.486Z,47.80
2023-04-02T14:25:22.504Z,51.20
2023-04-02T14:27:58.032Z,55.60
2023-04-02T14:30:53.592Z,52.50
2023-04-02T14:33:41.764Z,51.60
2023-04-02T14:36:15.566Z,52.90
2023-04-02T14:38:53.196Z,56.80
2023-04-02T14:41:30.401Z,53.20
2023-04-02T14:44:02.196Z,52.00
2023-04-02T14:46:32.019Z,51.90
2023-04-02T14:49:35.250Z,54.20
2023-04-02T14:52:10.049Z,57.40
2023-04-02T14:54:51.865Z,57.30
2023-04-02T14:57:27.855Z,51.10
2023-04-02T15:00:03.945Z,52.10
2023-04-02T15:02:45.526Z,56.20
2023-04-02T15:05:17.726Z,55.60
2023-04-02T15:08:07.016Z,50.20
2023-04-02T15:10:49.032Z,48.70
2023-04-02T15:13:21.233Z,49.80
2023-04-02T15:16:09.588Z,53.50
2023-04-02T15:18:38.362Z,52.80
2023-04-02T15:21:49.833Z,56.30
2023-04-02T15:24:43.470Z,51.70
2023-04-02T15:27:25.007Z,51.70
2023-04-02T15:30:14.940Z,50.50
2023-04-02T15:32:43.262Z,50.30
2023-04-02T15:35:20.300Z,50.90
2023-04-02T15:38:22.634Z,54.80
2023-04-02T15:40:53.516Z,55.40
2023-04-02T15:43:43.969Z,50.50
2023-04-02T15:46:23.174Z,49.30
2023-04-02T15:49:03.719Z,49.20
2023-04-02T15:51:49.986Z,51.40
2023-04-02T15:54:44.017Z,48.70
2023-04-02T15:57:34.978Z,50.00
2023-04-02T16:00:15.419Z,54.80
2023-04-02T16:02:50.870Z,57.00
2023-04-02T16:05:27.335Z,55.60
2023-04-02T16:08:39.301Z,54.80
2023-04-02T16:11:14.638Z,52.80
2023-04-02T16:13:43.794Z,51.90
2023-04-02T16:16:26.893Z,52.20
2023-04-02T16:19:17.221Z,52.60
2023-04-02T16:21:54.517Z,53.40
2023-04-02T16:24:22.517Z,54.60
2023-04-02T16:26:54.721Z,55.10
2023-04-02T16:29:50.969Z,55.40
2023-04-02T16:33:11.894Z,53.40
2023-04-02T16:35:50.051Z,54.90
2023-04-02T16:38:40.963Z,57.00
2023-04-02T16:41:19.757Z,58.90
2023-04-02T16:43:59.121Z,60.30
2023-04-02T16:47:04.568Z,60.50
2023-04-02T16:50:04.171Z,58.60
2023-04-02T16:56:42.017Z,58.40
2023-04-02T16:59:47.298Z,58.80
2023-04-02T17:02:20.544Z,60.30
2023-04-02T17:04:59.201Z,61.30
2023-04-02T17:07:33.384Z,62.40
2023-04-02T17:10:15.619Z,63.40
2023-04-02T17:12:47.487Z,64.80
2023-04-02T17:15:28.181Z,62.80
2023-04-02T17:18:01.921Z,62.40
2023-04-02T17:20:28.864Z,63.00
2023-04-02T17:22:56.978Z,62.50
2023-04-02T17:25:33.960Z,63.10
2023-04-02T17:28:02.560Z,63.20
2023-04-02T17:30:49.824Z,63.70
2023-04-02T17:33:18.910Z,64.20
2023-04-02T17:36:13.939Z,64.00
2023-04-02T17:38:47.147Z,65.00
2023-04-02T17:41:26.476Z,65.50
2023-04-02T17:44:11.108Z,66.40
2023-04-02T17:46:46.486Z,66.50
2023-04-02T17:49:34.405Z,66.70
2023-04-02T17:52:44.767Z,66.30
2023-04-02T17:56:04.864Z,67.00
2023-04-02T17:58:40.508Z,66.20
2023-04-02T18:01:22.583Z,66.30
2023-04-02T18:03:58.328Z,66.80
2023-04-02T18:06:25.063Z,67.40
2023-04-02T18:09:01.105Z,67.90
2023-04-02T18:12:01.550Z,68.20
2023-04-02T18:14:52.161Z,68.50
2023-04-02T18:17:40.555Z,69.10
2023-04-02T18:20:27.439Z,69.50
2023-04-02T18:23:01.328Z,69.70
2023-04-02T18:26:02.718Z,70.10
2023-04-02T18:28:47.912Z,69.90
2023-04-02T18:31:39.140Z,70.30
2023-04-02T18:34:37.023Z,70.90
2023-04-02T18:37:23.016Z,71.40
2023-04-02T18:40:26.408Z,70.90
2023-04-02T18:42:59.068Z,72.30
2023-04-02T18:45:41.667Z,72.50
2023-04-02T18:48:47.178Z,72.40
2023-04-02T18:51:23.363Z,72.70
2023-04-02T18:54:19.426Z,73.30
2023-04-02T18:57:28.784Z,73.70
2023-04-02T19:00:20.398Z,73.70
2023-04-02T19:03:07.527Z,74.40
2023-04-02T19:05:49.818Z,74.20
2023-04-02T19:08:36.066Z,74.90
2023-04-02T19:11:31.406Z,75.30
2023-04-02T19:14:04.987Z,75.30
2023-04-02T19:16:52.948Z,75.90
2023-04-02T19:19:22.431Z,76.90
2023-04-02T19:22:08.650Z,77.10
2023-04-02T19:25:13.031Z,76.80
2023-04-02T19:27:54.853Z,76.60
2023-04-02T19:30:39.050Z,77.40
2023-04-02T19:33:06.056Z,77.50
2023-04-02T19:35:55.442Z,78.10
2023-04-02T19:39:03.687Z,78.00
2023-04-02T19:41:36.623Z,78.30
2023-04-02T19:44:03.722Z,78.90
2023-04-02T19:46:30.721Z,78.90
2023-04-02T19:49:11.000Z,79.80
2023-04-02T19:51:37.739Z,79.30
2023-04-02T19:54:04.613Z,79.90
2023-04-02T19:56:31.437Z,79.60
2023-04-02T19:59:00.159Z,80.00
2023-04-02T20:01:29.213Z,80.40
2023-04-02T20:03:56.058Z,80.40
2023-04-02T20:06:22.852Z,80.90
2023-04-02T20:08:49.589Z,81.90
2023-04-02T20:11:16.370Z,81.20
2023-04-02T20:13:43.194Z,82.10
2023-04-02T20:16:10.087Z,81.90
2023-04-02T20:18:37.500Z,82.80
2023-04-02T20:21:06.219Z,82.60
2023-04-02T20:23:54.909Z,82.70
2023-04-02T20:26:22.604Z,83.30
2023-04-02T20:28:49.536Z,83.80
2023-04-02T20:31:18.186Z,83.90
2023-04-02T20:33:45.552Z,83.50
2023-04-02T20:36:15.613Z,84.10
2023-04-02T20:38:43.336Z,84.80
2023-04-02T20:41:10.507Z,84.60
2023-04-02T20:43:40.432Z,84.60
2023-04-02T20:46:10.041Z,84.50
2023-04-02T20:48:38.057Z,84.80
2023-04-02T20:51:06.710Z,85.60
2023-04-02T20:53:34.943Z,85.30
2023-04-02T20:56:13.804Z,85.70
2023-04-02T20:58:41.411Z,86.00
2023-04-02T21:01:25.918Z,86.30
2023-04-02T21:04:00.980Z,86.50
2023-04-02T21:06:33.632Z,86.40
2023-04-02T21:09:03.230Z,87.30
2023-04-02T21:11:30.480Z,87.40
2023-04-02T21:13:58.064Z,87.20
2023-04-02T21:16:28.694Z,87.50
2023-04-02T21:18:58.394Z,87.10
2023-04-02T21:21:25.848Z,87.10
2023-04-02T21:24:01.506Z,87.40
2023-04-02T21:26:32.455Z,87.50
2023-04-02T21:29:00.518Z,87.80
2023-04-02T21:31:29.617Z,87.20
2023-04-02T21:33:58.466Z,87.50
2023-04-02T21:36:29.946Z,87.40
2023-04-02T21:39:02.247Z,87.70
2023-04-02T21:41:30.612Z,87.90
2023-04-02T21:43:58.806Z,87.40
2023-04-02T21:46:28.040Z,87.70
2023-04-02T21:48:57.700Z,87.30
2023-04-02T21:51:26.641Z,87.90
2023-04-02T21:53:54.296Z,87.80
2023-04-02T21:56:26.959Z,87.70
2023-04-02T21:58:53.886Z,87.80
2023-04-02T22:01:27.223Z,88.20
2023-04-02T22:03:56.147Z,88.00
2023-04-02T22:06:25.014Z,88.30
2023-04-02T22:08:54.643Z,88.40
2023-04-02T22:11:24.768Z,88.40
2023-04-02T22:13:52.067Z,88.40
2023-04-02T22:16:24.159Z,88.40
2023-04-02T22:18:52.537Z,88.50
2023-04-02T22:21:20.239Z,88.80
2023-04-02T22:23:49.275Z,88.60
2023-04-02T22:26:17.703Z,88.60
2023-04-02T22:28:45.364Z,88.80
2023-04-02T22:31:14.994Z,88.80
2023-04-02T22:33:43.009Z,88.60
2023-04-02T22:36:10.970Z,89.30
2023-04-02T22:38:37.882Z,89.30
2023-04-02T22:41:09.242Z,89.70
2023-04-02T22:43:37.006Z,89.90
2023-04-02T22:46:05.544Z,89.70
2023-04-02T22:48:32.773Z,89.80
2023-04-02T22:50:59.725Z,90.50
2023-04-02T22:53:26.983Z,90.00
2023-04-02T22:55:53.818Z,90.20
2023-04-02T22:58:39.523Z,90.40
2023-04-02T23:01:18.682Z,90.00
2023-04-02T23:03:46.136Z,90.30
2023-04-02T23:06:16.222Z,90.20
2023-04-02T23:08:43.028Z,90.40
2023-04-02T23:11:18.973Z,90.70
2023-04-02T23:13:48.309Z,90.90
2023-04-02T23:16:16.265Z,91.20
2023-04-02T23:18:46.156Z,90.90
2023-04-02T23:21:13.207Z,91.20
2023-04-02T23:23:40.345Z,91.30
2023-04-02T23:26:10.295Z,91.20
2023-04-02T23:28:38.124Z,91.50
2023-04-02T23:31:07.634Z,91.20
2023-04-02T23:33:34.845Z,90.70
2023-04-02T23:36:11.322Z,91.00
2023-04-02T23:38:38.287Z,90.90
2023-04-02T23:41:05.139Z,91.10
2023-04-02T23:43:31.932Z,91.00
2023-04-02T23:45:58.696Z,90.70
2023-04-02T23:48:25.590Z,90.70
2023-04-02T23:50:52.609Z,90.90
2023-04-02T23:53:19.480Z,90.90
2023-04-02T23:55:46.239Z,91.40
2023-04-02T23:58:13.088Z,91.30
